sensor_id;sensor_type;location;lat;lon;timestamp;temperature;humidity
38183;DHT22;23991;52.430;10.586;2022-08-19T00:00:34;23.30;71.20
38183;DHT22;23991;52.430;10.586;2022-08-19T00:02:59;23.20;71.30
38183;DHT22;23991;52.430;10.586;2022-08-19T00:05:25;23.20;71.40
38183;DHT22;23991;52.430;10.586;2022-08-19T00:07:51;23.20;71.40
38183;DHT22;23991;52.430;10.586;2022-08-19T00:10:19;23.20;71.40
38183;DHT22;23991;52.430;10.586;2022-08-19T00:12:45;23.20;71.50
38183;DHT22;23991;52.430;10.586;2022-08-19T00:15:13;23.20;71.60
38183;DHT22;23991;52.430;10.586;2022-08-19T00:17:42;23.20;71.60
38183;DHT22;23991;52.430;10.586;2022-08-19T00:20:11;23.10;71.70
38183;DHT22;23991;52.430;10.586;2022-08-19T00:22:38;23.00;71.80
38183;DHT22;23991;52.430;10.586;2022-08-19T00:25:05;23.00;71.80
38183;DHT22;23991;52.430;10.586;2022-08-19T00:27:31;23.00;71.80
38183;DHT22;23991;52.430;10.586;2022-08-19T00:29:57;22.90;72.10
38183;DHT22;23991;52.430;10.586;2022-08-19T00:32:24;22.90;72.10
38183;DHT22;23991;52.430;10.586;2022-08-19T00:34:50;22.90;72.10
38183;DHT22;23991;52.430;10.586;2022-08-19T00:37:18;22.80;72.20
38183;DHT22;23991;52.430;10.586;2022-08-19T00:39:45;22.80;72.20
38183;DHT22;23991;52.430;10.586;2022-08-19T00:42:10;22.80;72.30
38183;DHT22;23991;52.430;10.586;2022-08-19T00:44:36;22.80;72.20
38183;DHT22;23991;52.430;10.586;2022-08-19T00:47:02;22.80;72.20
38183;DHT22;23991;52.430;10.586;2022-08-19T00:49:41;22.80;72.20
38183;DHT22;23991;52.430;10.586;2022-08-19T00:52:17;22.70;72.30
38183;DHT22;23991;52.430;10.586;2022-08-19T00:54:44;22.70;72.20
38183;DHT22;23991;52.430;10.586;2022-08-19T00:57:16;22.70;72.20
38183;DHT22;23991;52.430;10.586;2022-08-19T00:59:45;22.70;72.20
38183;DHT22;23991;52.430;10.586;2022-08-19T01:02:12;22.70;72.20
38183;DHT22;23991;52.430;10.586;2022-08-19T01:04:38;22.70;72.30
38183;DHT22;23991;52.430;10.586;2022-08-19T01:07:04;22.60;72.30
38183;DHT22;23991;52.430;10.586;2022-08-19T01:09:30;22.60;72.30
38183;DHT22;23991;52.430;10.586;2022-08-19T01:11:57;22.60;72.30
38183;DHT22;23991;52.430;10.586;2022-08-19T01:14:22;22.60;72.30
38183;DHT22;23991;52.430;10.586;2022-08-19T01:16:49;22.60;72.40
38183;DHT22;23991;52.430;10.586;2022-08-19T01:19:31;22.50;72.60
38183;DHT22;23991;52.430;10.586;2022-08-19T01:22:15;22.50;72.70
38183;DHT22;23991;52.430;10.586;2022-08-19T01:24:42;22.50;72.40
38183;DHT22;23991;52.430;10.586;2022-08-19T01:27:08;22.50;72.40
38183;DHT22;23991;52.430;10.586;2022-08-19T01:29:38;22.40;72.40
38183;DHT22;23991;52.430;10.586;2022-08-19T01:32:04;22.40;72.40
38183;DHT22;23991;52.430;10.586;2022-08-19T01:34:30;22.40;72.50
38183;DHT22;23991;52.430;10.586;2022-08-19T01:36:56;22.40;72.50
38183;DHT22;23991;52.430;10.586;2022-08-19T01:39:24;22.40;72.60
38183;DHT22;23991;52.430;10.586;2022-08-19T01:41:50;22.40;72.60
38183;DHT22;23991;52.430;10.586;2022-08-19T01:44:20;22.30;72.80
38183;DHT22;23991;52.430;10.586;2022-08-19T01:46:49;22.30;72.70
38183;DHT22;23991;52.430;10.586;2022-08-19T01:49:18;22.30;72.40
38183;DHT22;23991;52.430;10.586;2022-08-19T01:51:44;22.30;72.40
38183;DHT22;23991;52.430;10.586;2022-08-19T01:54:12;22.30;72.30
38183;DHT22;23991;52.430;10.586;2022-08-19T01:56:38;22.30;72.30
38183;DHT22;23991;52.430;10.586;2022-08-19T01:59:08;22.20;72.40
38183;DHT22;23991;52.430;10.586;2022-08-19T02:01:35;22.20;72.30
38183;DHT22;23991;52.430;10.586;2022-08-19T02:04:01;22.20;72.40
38183;DHT22;23991;52.430;10.586;2022-08-19T02:06:27;22.10;72.50
38183;DHT22;23991;52.430;10.586;2022-08-19T02:08:53;22.10;72.60
38183;DHT22;23991;52.430;10.586;2022-08-19T02:11:23;22.10;72.50
38183;DHT22;23991;52.430;10.586;2022-08-19T02:13:52;22.10;72.50
38183;DHT22;23991;52.430;10.586;2022-08-19T02:16:19;22.00;72.50
38183;DHT22;23991;52.430;10.586;2022-08-19T02:18:46;22.00;72.50
38183;DHT22;23991;52.430;10.586;2022-08-19T02:21:14;22.00;72.60
38183;DHT22;23991;52.430;10.586;2022-08-19T02:23:41;22.00;72.50
38183;DHT22;23991;52.430;10.586;2022-08-19T02:26:07;22.00;72.70
38183;DHT22;23991;52.430;10.586;2022-08-19T02:28:32;21.90;72.70
38183;DHT22;23991;52.430;10.586;2022-08-19T02:30:59;21.90;72.70
38183;DHT22;23991;52.430;10.586;2022-08-19T02:33:26;21.90;72.80
38183;DHT22;23991;52.430;10.586;2022-08-19T02:35:51;21.80;72.70
38183;DHT22;23991;52.430;10.586;2022-08-19T02:38:17;21.80;72.60
38183;DHT22;23991;52.430;10.586;2022-08-19T02:40:57;21.80;72.70
38183;DHT22;23991;52.430;10.586;2022-08-19T02:43:26;21.80;72.70
38183;DHT22;23991;52.430;10.586;2022-08-19T02:45:54;21.80;72.60
38183;DHT22;23991;52.430;10.586;2022-08-19T02:48:21;21.70;72.70
38183;DHT22;23991;52.430;10.586;2022-08-19T02:50:49;21.70;72.70
38183;DHT22;23991;52.430;10.586;2022-08-19T02:53:20;21.70;72.50
38183;DHT22;23991;52.430;10.586;2022-08-19T02:55:47;21.70;72.60
38183;DHT22;23991;52.430;10.586;2022-08-19T02:58:14;21.70;72.60
38183;DHT22;23991;52.430;10.586;2022-08-19T03:00:49;21.60;72.70
38183;DHT22;23991;52.430;10.586;2022-08-19T03:03:15;21.60;72.60
38183;DHT22;23991;52.430;10.586;2022-08-19T03:05:42;21.60;72.70
38183;DHT22;23991;52.430;10.586;2022-08-19T03:08:08;21.60;72.70
38183;DHT22;23991;52.430;10.586;2022-08-19T03:10:47;21.60;72.60
38183;DHT22;23991;52.430;10.586;2022-08-19T03:13:14;21.60;72.70
38183;DHT22;23991;52.430;10.586;2022-08-19T03:15:42;21.50;72.40
38183;DHT22;23991;52.430;10.586;2022-08-19T03:18:09;21.50;72.60
38183;DHT22;23991;52.430;10.586;2022-08-19T03:20:42;21.50;72.60
38183;DHT22;23991;52.430;10.586;2022-08-19T03:23:07;21.50;72.70
38183;DHT22;23991;52.430;10.586;2022-08-19T03:25:37;21.40;72.80
38183;DHT22;23991;52.430;10.586;2022-08-19T03:28:03;21.50;72.80
38183;DHT22;23991;52.430;10.586;2022-08-19T03:30:29;21.40;72.70
38183;DHT22;23991;52.430;10.586;2022-08-19T03:32:54;21.40;72.90
38183;DHT22;23991;52.430;10.586;2022-08-19T03:35:20;21.40;72.90
38183;DHT22;23991;52.430;10.586;2022-08-19T03:37:46;21.40;73.00
38183;DHT22;23991;52.430;10.586;2022-08-19T03:40:11;21.30;72.80
38183;DHT22;23991;52.430;10.586;2022-08-19T03:42:37;21.30;73.00
38183;DHT22;23991;52.430;10.586;2022-08-19T03:45:03;21.30;73.10
38183;DHT22;23991;52.430;10.586;2022-08-19T03:47:28;21.30;73.30
38183;DHT22;23991;52.430;10.586;2022-08-19T03:49:55;21.20;73.40
38183;DHT22;23991;52.430;10.586;2022-08-19T03:52:21;21.20;73.30
38183;DHT22;23991;52.430;10.586;2022-08-19T03:54:46;21.20;73.40
38183;DHT22;23991;52.430;10.586;2022-08-19T03:57:12;21.20;73.50
38183;DHT22;23991;52.430;10.586;2022-08-19T03:59:38;21.20;73.50
38183;DHT22;23991;52.430;10.586;2022-08-19T04:02:08;21.10;73.60
38183;DHT22;23991;52.430;10.586;2022-08-19T04:04:34;21.10;73.80
38183;DHT22;23991;52.430;10.586;2022-08-19T04:07:00;21.10;73.80
38183;DHT22;23991;52.430;10.586;2022-08-19T04:09:26;21.20;73.70
38183;DHT22;23991;52.430;10.586;2022-08-19T04:11:57;21.10;73.70
38183;DHT22;23991;52.430;10.586;2022-08-19T04:14:27;21.10;73.60
38183;DHT22;23991;52.430;10.586;2022-08-19T04:16:56;21.20;73.60
38183;DHT22;23991;52.430;10.586;2022-08-19T04:19:21;21.10;73.50
38183;DHT22;23991;52.430;10.586;2022-08-19T04:21:50;21.10;73.50
38183;DHT22;23991;52.430;10.586;2022-08-19T04:24:17;21.10;73.60
38183;DHT22;23991;52.430;10.586;2022-08-19T04:26:43;21.10;73.60
38183;DHT22;23991;52.430;10.586;2022-08-19T04:29:19;21.00;73.60
38183;DHT22;23991;52.430;10.586;2022-08-19T04:31:47;21.00;73.70
38183;DHT22;23991;52.430;10.586;2022-08-19T04:34:15;21.00;73.70
38183;DHT22;23991;52.430;10.586;2022-08-19T04:36:44;20.90;73.90
38183;DHT22;23991;52.430;10.586;2022-08-19T04:39:16;20.90;74.00
38183;DHT22;23991;52.430;10.586;2022-08-19T04:41:43;20.90;74.20
38183;DHT22;23991;52.430;10.586;2022-08-19T04:44:28;20.90;74.20
38183;DHT22;23991;52.430;10.586;2022-08-19T04:46:56;20.90;74.30
38183;DHT22;23991;52.430;10.586;2022-08-19T04:49:22;20.90;74.30
38183;DHT22;23991;52.430;10.586;2022-08-19T04:51:49;20.80;74.40
38183;DHT22;23991;52.430;10.586;2022-08-19T04:54:16;20.90;74.30
38183;DHT22;23991;52.430;10.586;2022-08-19T04:56:42;20.90;74.20
38183;DHT22;23991;52.430;10.586;2022-08-19T04:59:09;20.90;74.20
38183;DHT22;23991;52.430;10.586;2022-08-19T05:01:36;21.00;74.00
38183;DHT22;23991;52.430;10.586;2022-08-19T05:04:04;21.00;73.80
38183;DHT22;23991;52.430;10.586;2022-08-19T05:06:31;21.00;73.80
38183;DHT22;23991;52.430;10.586;2022-08-19T05:09:02;21.10;73.40
38183;DHT22;23991;52.430;10.586;2022-08-19T05:11:31;21.20;73.30
38183;DHT22;23991;52.430;10.586;2022-08-19T05:13:57;21.20;73.20
38183;DHT22;23991;52.430;10.586;2022-08-19T05:16:24;21.30;72.90
38183;DHT22;23991;52.430;10.586;2022-08-19T05:18:51;21.30;72.60
38183;DHT22;23991;52.430;10.586;2022-08-19T05:21:36;21.30;72.40
38183;DHT22;23991;52.430;10.586;2022-08-19T05:24:22;21.40;72.10
38183;DHT22;23991;52.430;10.586;2022-08-19T05:26:50;21.40;71.90
38183;DHT22;23991;52.430;10.586;2022-08-19T05:29:19;21.50;71.70
38183;DHT22;23991;52.430;10.586;2022-08-19T05:31:45;21.50;71.50
38183;DHT22;23991;52.430;10.586;2022-08-19T05:34:12;21.60;71.20
38183;DHT22;23991;52.430;10.586;2022-08-19T05:36:42;21.70;70.90
38183;DHT22;23991;52.430;10.586;2022-08-19T05:39:12;21.70;70.50
38183;DHT22;23991;52.430;10.586;2022-08-19T05:41:47;21.70;70.60
38183;DHT22;23991;52.430;10.586;2022-08-19T05:44:14;21.70;70.60
38183;DHT22;23991;52.430;10.586;2022-08-19T05:46:40;21.70;70.80
38183;DHT22;23991;52.430;10.586;2022-08-19T05:49:08;21.80;70.20
38183;DHT22;23991;52.430;10.586;2022-08-19T05:51:36;21.90;70.20
38183;DHT22;23991;52.430;10.586;2022-08-19T05:54:03;21.90;70.10
38183;DHT22;23991;52.430;10.586;2022-08-19T05:56:29;21.90;69.90
38183;DHT22;23991;52.430;10.586;2022-08-19T05:59:00;22.00;69.90
38183;DHT22;23991;52.430;10.586;2022-08-19T06:01:26;22.00;69.60
38183;DHT22;23991;52.430;10.586;2022-08-19T06:03:53;22.10;69.60
38183;DHT22;23991;52.430;10.586;2022-08-19T06:06:19;22.20;69.40
38183;DHT22;23991;52.430;10.586;2022-08-19T06:08:45;22.20;68.80
38183;DHT22;23991;52.430;10.586;2022-08-19T06:11:40;22.30;68.60
38183;DHT22;23991;52.430;10.586;2022-08-19T06:14:13;22.30;68.50
38183;DHT22;23991;52.430;10.586;2022-08-19T06:16:41;22.30;68.60
38183;DHT22;23991;52.430;10.586;2022-08-19T06:19:11;22.30;68.70
38183;DHT22;23991;52.430;10.586;2022-08-19T06:21:39;22.40;68.30
38183;DHT22;23991;52.430;10.586;2022-08-19T06:24:06;22.40;68.00
38183;DHT22;23991;52.430;10.586;2022-08-19T06:26:34;22.50;67.70
38183;DHT22;23991;52.430;10.586;2022-08-19T06:29:00;22.50;67.60
38183;DHT22;23991;52.430;10.586;2022-08-19T06:31:29;22.60;67.60
38183;DHT22;23991;52.430;10.586;2022-08-19T06:33:56;22.60;67.60
38183;DHT22;23991;52.430;10.586;2022-08-19T06:36:26;22.70;67.30
38183;DHT22;23991;52.430;10.586;2022-08-19T06:39:10;22.70;67.10
38183;DHT22;23991;52.430;10.586;2022-08-19T06:41:39;22.70;67.20
38183;DHT22;23991;52.430;10.586;2022-08-19T06:44:06;22.70;67.20
38183;DHT22;23991;52.430;10.586;2022-08-19T06:46:32;22.70;67.00
38183;DHT22;23991;52.430;10.586;2022-08-19T06:48:57;22.70;66.80
38183;DHT22;23991;52.430;10.586;2022-08-19T06:51:24;22.70;66.90
38183;DHT22;23991;52.430;10.586;2022-08-19T06:53:51;22.70;66.90
38183;DHT22;23991;52.430;10.586;2022-08-19T06:56:20;22.70;66.70
38183;DHT22;23991;52.430;10.586;2022-08-19T06:58:46;22.80;66.50
38183;DHT22;23991;52.430;10.586;2022-08-19T07:01:13;22.80;66.40
38183;DHT22;23991;52.430;10.586;2022-08-19T07:03:39;22.80;66.40
38183;DHT22;23991;52.430;10.586;2022-08-19T07:06:12;22.80;66.20
38183;DHT22;23991;52.430;10.586;2022-08-19T07:08:40;23.00;65.80
38183;DHT22;23991;52.430;10.586;2022-08-19T07:11:10;22.90;66.00
38183;DHT22;23991;52.430;10.586;2022-08-19T07:13:39;22.90;65.90
38183;DHT22;23991;52.430;10.586;2022-08-19T07:16:10;23.00;65.60
38183;DHT22;23991;52.430;10.586;2022-08-19T07:18:36;23.00;65.60
38183;DHT22;23991;52.430;10.586;2022-08-19T07:21:13;22.90;65.50
38183;DHT22;23991;52.430;10.586;2022-08-19T07:23:39;22.90;65.60
38183;DHT22;23991;52.430;10.586;2022-08-19T07:26:11;23.00;65.60
38183;DHT22;23991;52.430;10.586;2022-08-19T07:28:37;23.00;65.50
38183;DHT22;23991;52.430;10.586;2022-08-19T07:31:07;23.00;65.50
38183;DHT22;23991;52.430;10.586;2022-08-19T07:33:33;23.10;65.40
38183;DHT22;23991;52.430;10.586;2022-08-19T07:36:03;23.20;65.20
38183;DHT22;23991;52.430;10.586;2022-08-19T07:38:29;23.10;65.10
38183;DHT22;23991;52.430;10.586;2022-08-19T07:40:54;23.20;64.90
38183;DHT22;23991;52.430;10.586;2022-08-19T07:43:20;23.30;64.80
38183;DHT22;23991;52.430;10.586;2022-08-19T07:45:51;23.10;65.10
38183;DHT22;23991;52.430;10.586;2022-08-19T07:48:18;23.20;65.10
38183;DHT22;23991;52.430;10.586;2022-08-19T07:50:44;23.20;64.80
38183;DHT22;23991;52.430;10.586;2022-08-19T07:53:09;23.20;64.70
38183;DHT22;23991;52.430;10.586;2022-08-19T07:55:37;23.30;64.60
38183;DHT22;23991;52.430;10.586;2022-08-19T07:58:03;23.30;64.30
38183;DHT22;23991;52.430;10.586;2022-08-19T08:00:30;23.30;64.20
38183;DHT22;23991;52.430;10.586;2022-08-19T08:02:55;23.30;64.30
38183;DHT22;23991;52.430;10.586;2022-08-19T08:05:22;23.30;64.20
38183;DHT22;23991;52.430;10.586;2022-08-19T08:08:06;23.30;64.10
38183;DHT22;23991;52.430;10.586;2022-08-19T08:11:07;23.30;63.90
38183;DHT22;23991;52.430;10.586;2022-08-19T08:13:33;23.30;63.70
38183;DHT22;23991;52.430;10.586;2022-08-19T08:16:01;23.50;63.30
38183;DHT22;23991;52.430;10.586;2022-08-19T08:18:27;23.50;63.10
38183;DHT22;23991;52.430;10.586;2022-08-19T08:20:54;23.60;62.80
38183;DHT22;23991;52.430;10.586;2022-08-19T08:23:20;23.60;62.50
38183;DHT22;23991;52.430;10.586;2022-08-19T08:25:50;23.50;62.70
38183;DHT22;23991;52.430;10.586;2022-08-19T08:28:17;23.50;62.80
38183;DHT22;23991;52.430;10.586;2022-08-19T08:30:42;23.50;62.80
38183;DHT22;23991;52.430;10.586;2022-08-19T08:33:09;23.50;62.70
38183;DHT22;23991;52.430;10.586;2022-08-19T08:35:35;23.60;62.60
38183;DHT22;23991;52.430;10.586;2022-08-19T08:38:02;23.70;62.10
38183;DHT22;23991;52.430;10.586;2022-08-19T08:43:38;23.80;61.70
38183;DHT22;23991;52.430;10.586;2022-08-19T08:46:13;24.00;61.50
38183;DHT22;23991;52.430;10.586;2022-08-19T08:49:01;24.10;61.10
38183;DHT22;23991;52.430;10.586;2022-08-19T08:51:33;24.30;60.50
38183;DHT22;23991;52.430;10.586;2022-08-19T08:54:00;24.30;60.20
38183;DHT22;23991;52.430;10.586;2022-08-19T08:56:26;24.40;59.50
38183;DHT22;23991;52.430;10.586;2022-08-19T08:59:04;24.50;59.60
38183;DHT22;23991;52.430;10.586;2022-08-19T09:01:33;24.70;59.50
38183;DHT22;23991;52.430;10.586;2022-08-19T09:03:59;24.90;58.60
38183;DHT22;23991;52.430;10.586;2022-08-19T09:09:36;25.30;57.30
38183;DHT22;23991;52.430;10.586;2022-08-19T09:15:06;25.60;56.30
38183;DHT22;23991;52.430;10.586;2022-08-19T09:17:33;25.70;55.90
38183;DHT22;23991;52.430;10.586;2022-08-19T09:22:34;25.80;55.50
38183;DHT22;23991;52.430;10.586;2022-08-19T09:25:01;26.00;55.10
38183;DHT22;23991;52.430;10.586;2022-08-19T09:27:27;26.30;54.50
38183;DHT22;23991;52.430;10.586;2022-08-19T09:29:54;26.40;53.90
38183;DHT22;23991;52.430;10.586;2022-08-19T09:32:21;26.50;53.80
38183;DHT22;23991;52.430;10.586;2022-08-19T09:34:47;26.70;53.10
38183;DHT22;23991;52.430;10.586;2022-08-19T09:37:13;26.70;52.90
38183;DHT22;23991;52.430;10.586;2022-08-19T09:39:40;26.80;52.70
38183;DHT22;23991;52.430;10.586;2022-08-19T09:42:07;26.90;52.20
38183;DHT22;23991;52.430;10.586;2022-08-19T09:44:38;27.00;51.90
38183;DHT22;23991;52.430;10.586;2022-08-19T09:47:04;26.80;52.20
38183;DHT22;23991;52.430;10.586;2022-08-19T09:49:30;26.70;52.40
38183;DHT22;23991;52.430;10.586;2022-08-19T09:51:56;26.70;52.50
38183;DHT22;23991;52.430;10.586;2022-08-19T09:54:22;26.30;52.90
38183;DHT22;23991;52.430;10.586;2022-08-19T09:56:49;26.20;53.50
38183;DHT22;23991;52.430;10.586;2022-08-19T09:59:14;26.10;53.70
38183;DHT22;23991;52.430;10.586;2022-08-19T10:01:40;26.10;53.80
38183;DHT22;23991;52.430;10.586;2022-08-19T10:04:06;26.00;54.10
38183;DHT22;23991;52.430;10.586;2022-08-19T10:06:36;25.80;54.50
38183;DHT22;23991;52.430;10.586;2022-08-19T10:09:04;25.90;54.40
38183;DHT22;23991;52.430;10.586;2022-08-19T10:11:32;25.90;54.20
38183;DHT22;23991;52.430;10.586;2022-08-19T10:13:58;25.90;54.20
38183;DHT22;23991;52.430;10.586;2022-08-19T10:16:24;25.90;54.40
38183;DHT22;23991;52.430;10.586;2022-08-19T10:18:51;25.90;54.40
38183;DHT22;23991;52.430;10.586;2022-08-19T10:21:23;25.90;54.20
38183;DHT22;23991;52.430;10.586;2022-08-19T10:23:52;25.80;54.70
38183;DHT22;23991;52.430;10.586;2022-08-19T10:26:24;25.80;54.60
38183;DHT22;23991;52.430;10.586;2022-08-19T10:28:50;25.80;54.40
38183;DHT22;23991;52.430;10.586;2022-08-19T10:31:18;25.80;54.80
38183;DHT22;23991;52.430;10.586;2022-08-19T10:33:48;26.00;54.20
38183;DHT22;23991;52.430;10.586;2022-08-19T10:36:17;25.90;54.40
38183;DHT22;23991;52.430;10.586;2022-08-19T10:38:44;25.80;54.70
38183;DHT22;23991;52.430;10.586;2022-08-19T10:41:13;25.80;54.70
38183;DHT22;23991;52.430;10.586;2022-08-19T10:43:40;25.90;54.50
38183;DHT22;23991;52.430;10.586;2022-08-19T10:46:07;25.90;54.40
38183;DHT22;23991;52.430;10.586;2022-08-19T10:48:34;25.90;54.50
38183;DHT22;23991;52.430;10.586;2022-08-19T10:51:00;25.80;54.60
38183;DHT22;23991;52.430;10.586;2022-08-19T10:53:44;25.80;54.70
38183;DHT22;23991;52.430;10.586;2022-08-19T10:56:10;25.80;54.70
38183;DHT22;23991;52.430;10.586;2022-08-19T10:58:59;26.00;54.70
38183;DHT22;23991;52.430;10.586;2022-08-19T11:01:26;26.00;54.30
38183;DHT22;23991;52.430;10.586;2022-08-19T11:03:52;26.00;54.60
38183;DHT22;23991;52.430;10.586;2022-08-19T11:06:18;26.00;54.40
38183;DHT22;23991;52.430;10.586;2022-08-19T11:08:45;26.00;54.60
38183;DHT22;23991;52.430;10.586;2022-08-19T11:11:11;26.20;54.10
38183;DHT22;23991;52.430;10.586;2022-08-19T11:13:40;26.20;54.00
38183;DHT22;23991;52.430;10.586;2022-08-19T11:16:15;26.30;53.70
38183;DHT22;23991;52.430;10.586;2022-08-19T11:18:47;26.40;53.80
38183;DHT22;23991;52.430;10.586;2022-08-19T11:21:19;26.70;53.10
38183;DHT22;23991;52.430;10.586;2022-08-19T11:23:48;27.00;52.40
38183;DHT22;23991;52.430;10.586;2022-08-19T11:26:14;27.40;51.20
38183;DHT22;23991;52.430;10.586;2022-08-19T11:28:40;27.50;50.90
38183;DHT22;23991;52.430;10.586;2022-08-19T11:31:15;28.00;50.30
38183;DHT22;23991;52.430;10.586;2022-08-19T11:33:41;28.70;48.70
38183;DHT22;23991;52.430;10.586;2022-08-19T11:36:08;29.30;47.30
38183;DHT22;23991;52.430;10.586;2022-08-19T11:38:35;29.90;45.80
38183;DHT22;23991;52.430;10.586;2022-08-19T11:41:03;30.50;44.60
38183;DHT22;23991;52.430;10.586;2022-08-19T11:43:29;31.00;43.10
38183;DHT22;23991;52.430;10.586;2022-08-19T11:45:56;31.40;42.10
38183;DHT22;23991;52.430;10.586;2022-08-19T11:48:22;31.50;41.60
38183;DHT22;23991;52.430;10.586;2022-08-19T11:50:49;31.50;41.40
38183;DHT22;23991;52.430;10.586;2022-08-19T11:53:16;31.40;41.70
38183;DHT22;23991;52.430;10.586;2022-08-19T11:55:42;31.30;41.70
38183;DHT22;23991;52.430;10.586;2022-08-19T11:58:08;31.00;42.40
38183;DHT22;23991;52.430;10.586;2022-08-19T12:00:34;30.80;42.90
38183;DHT22;23991;52.430;10.586;2022-08-19T12:03:02;30.80;42.60
38183;DHT22;23991;52.430;10.586;2022-08-19T12:05:28;30.70;43.10
38183;DHT22;23991;52.430;10.586;2022-08-19T12:07:53;30.80;42.60
38183;DHT22;23991;52.430;10.586;2022-08-19T12:10:20;30.70;42.60
38183;DHT22;23991;52.430;10.586;2022-08-19T12:12:46;30.30;43.30
38183;DHT22;23991;52.430;10.586;2022-08-19T12:15:12;30.20;43.60
38183;DHT22;23991;52.430;10.586;2022-08-19T12:17:42;30.20;43.60
38183;DHT22;23991;52.430;10.586;2022-08-19T12:20:12;30.20;43.60
38183;DHT22;23991;52.430;10.586;2022-08-19T12:22:39;30.00;44.30
38183;DHT22;23991;52.430;10.586;2022-08-19T12:25:11;30.20;44.40
38183;DHT22;23991;52.430;10.586;2022-08-19T12:27:38;30.20;44.00
38183;DHT22;23991;52.430;10.586;2022-08-19T12:30:06;30.20;44.10
38183;DHT22;23991;52.430;10.586;2022-08-19T12:32:32;30.30;43.70
38183;DHT22;23991;52.430;10.586;2022-08-19T12:34:58;30.30;43.70
38183;DHT22;23991;52.430;10.586;2022-08-19T12:37:23;30.40;43.50
38183;DHT22;23991;52.430;10.586;2022-08-19T12:39:49;30.70;43.00
38183;DHT22;23991;52.430;10.586;2022-08-19T12:42:15;30.90;42.60
38183;DHT22;23991;52.430;10.586;2022-08-19T12:44:42;31.30;41.70
38183;DHT22;23991;52.430;10.586;2022-08-19T12:47:09;31.60;40.70
38183;DHT22;23991;52.430;10.586;2022-08-19T12:49:35;31.40;41.00
38183;DHT22;23991;52.430;10.586;2022-08-19T12:52:03;31.70;40.50
38183;DHT22;23991;52.430;10.586;2022-08-19T12:54:29;31.70;40.20
38183;DHT22;23991;52.430;10.586;2022-08-19T12:56:58;31.70;40.10
38183;DHT22;23991;52.430;10.586;2022-08-19T12:59:25;32.10;40.00
38183;DHT22;23991;52.430;10.586;2022-08-19T13:01:51;32.60;39.00
38183;DHT22;23991;52.430;10.586;2022-08-19T13:04:16;33.00;37.90
38183;DHT22;23991;52.430;10.586;2022-08-19T13:06:42;33.40;37.30
38183;DHT22;23991;52.430;10.586;2022-08-19T13:09:08;34.10;36.20
38183;DHT22;23991;52.430;10.586;2022-08-19T13:11:34;34.20;35.80
38183;DHT22;23991;52.430;10.586;2022-08-19T13:14:01;34.40;35.60
38183;DHT22;23991;52.430;10.586;2022-08-19T13:16:28;34.30;35.80
38183;DHT22;23991;52.430;10.586;2022-08-19T13:18:55;34.20;36.00
38183;DHT22;23991;52.430;10.586;2022-08-19T13:21:24;34.20;36.10
38183;DHT22;23991;52.430;10.586;2022-08-19T13:23:51;33.70;36.40
38183;DHT22;23991;52.430;10.586;2022-08-19T13:26:17;33.60;36.80
38183;DHT22;23991;52.430;10.586;2022-08-19T13:28:44;33.40;37.30
38183;DHT22;23991;52.430;10.586;2022-08-19T13:31:31;33.10;37.80
38183;DHT22;23991;52.430;10.586;2022-08-19T13:34:18;33.20;37.70
38183;DHT22;23991;52.430;10.586;2022-08-19T13:36:46;33.10;38.00
38183;DHT22;23991;52.430;10.586;2022-08-19T13:39:12;32.90;38.00
38183;DHT22;23991;52.430;10.586;2022-08-19T13:41:44;32.70;38.30
38183;DHT22;23991;52.430;10.586;2022-08-19T13:44:16;32.70;38.50
38183;DHT22;23991;52.430;10.586;2022-08-19T13:46:44;32.70;38.60
38183;DHT22;23991;52.430;10.586;2022-08-19T13:49:11;32.70;38.00
38183;DHT22;23991;52.430;10.586;2022-08-19T13:51:38;32.70;38.20
38183;DHT22;23991;52.430;10.586;2022-08-19T13:54:08;32.50;38.60
38183;DHT22;23991;52.430;10.586;2022-08-19T13:56:35;32.60;38.60
38183;DHT22;23991;52.430;10.586;2022-08-19T13:59:01;32.40;38.60
38183;DHT22;23991;52.430;10.586;2022-08-19T14:01:27;32.40;38.70
38183;DHT22;23991;52.430;10.586;2022-08-19T14:03:53;32.10;39.20
38183;DHT22;23991;52.430;10.586;2022-08-19T14:06:19;31.90;39.90
38183;DHT22;23991;52.430;10.586;2022-08-19T14:08:46;32.10;39.40
38183;DHT22;23991;52.430;10.586;2022-08-19T14:11:12;31.80;40.10
38183;DHT22;23991;52.430;10.586;2022-08-19T14:13:38;32.00;39.50
38183;DHT22;23991;52.430;10.586;2022-08-19T14:16:08;31.70;39.90
38183;DHT22;23991;52.430;10.586;2022-08-19T14:18:34;31.80;39.90
38183;DHT22;23991;52.430;10.586;2022-08-19T14:21:00;31.90;39.80
38183;DHT22;23991;52.430;10.586;2022-08-19T14:23:26;32.10;39.70
38183;DHT22;23991;52.430;10.586;2022-08-19T14:25:51;32.40;38.90
38183;DHT22;23991;52.430;10.586;2022-08-19T14:28:17;32.70;38.50
38183;DHT22;23991;52.430;10.586;2022-08-19T14:30:43;33.00;38.20
38183;DHT22;23991;52.430;10.586;2022-08-19T14:33:10;33.00;37.90
38183;DHT22;23991;52.430;10.586;2022-08-19T14:35:36;32.70;38.40
38183;DHT22;23991;52.430;10.586;2022-08-19T14:38:03;33.10;37.80
38183;DHT22;23991;52.430;10.586;2022-08-19T14:40:30;33.20;37.40
38183;DHT22;23991;52.430;10.586;2022-08-19T14:42:58;33.30;37.00
38183;DHT22;23991;52.430;10.586;2022-08-19T14:45:28;33.70;37.00
38183;DHT22;23991;52.430;10.586;2022-08-19T14:47:54;33.80;36.70
38183;DHT22;23991;52.430;10.586;2022-08-19T14:50:21;33.80;36.50
38183;DHT22;23991;52.430;10.586;2022-08-19T14:52:47;34.10;36.10
38183;DHT22;23991;52.430;10.586;2022-08-19T14:55:14;34.00;36.30
38183;DHT22;23991;52.430;10.586;2022-08-19T14:57:43;34.00;35.90
38183;DHT22;23991;52.430;10.586;2022-08-19T15:00:10;34.10;35.70
38183;DHT22;23991;52.430;10.586;2022-08-19T15:02:39;34.30;35.30
38183;DHT22;23991;52.430;10.586;2022-08-19T15:05:05;34.40;34.90
38183;DHT22;23991;52.430;10.586;2022-08-19T15:07:32;34.20;35.30
38183;DHT22;23991;52.430;10.586;2022-08-19T15:09:58;34.20;35.50
38183;DHT22;23991;52.430;10.586;2022-08-19T15:12:24;34.40;35.00
38183;DHT22;23991;52.430;10.586;2022-08-19T15:14:50;34.60;34.90
38183;DHT22;23991;52.430;10.586;2022-08-19T15:17:16;34.70;35.00
38183;DHT22;23991;52.430;10.586;2022-08-19T15:19:42;34.40;35.20
38183;DHT22;23991;52.430;10.586;2022-08-19T15:22:08;34.30;35.50
38183;DHT22;23991;52.430;10.586;2022-08-19T15:24:33;34.60;35.00
38183;DHT22;23991;52.430;10.586;2022-08-19T15:27:01;34.80;34.50
38183;DHT22;23991;52.430;10.586;2022-08-19T15:29:26;34.70;34.40
38183;DHT22;23991;52.430;10.586;2022-08-19T15:31:53;34.90;34.20